createdAt,value
2022-12-03T00:02:10.021Z,10.98
2022-12-03T00:04:36.477Z,10.60
2022-12-03T00:07:03.774Z,11.32
2022-12-03T00:09:30.212Z,11.10
2022-12-03T00:11:56.601Z,10.73
2022-12-03T00:14:23.114Z,11.60
2022-12-03T00:16:49.549Z,11.43
2022-12-03T00:19:15.949Z,11.55
2022-12-03T00:21:42.346Z,11.55
2022-12-03T00:24:08.908Z,12.70
2022-12-03T00:26:35.271Z,12.43
2022-12-03T00:29:01.616Z,11.55
2022-12-03T00:31:28.041Z,12.18
2022-12-03T00:33:54.572Z,10.93
2022-12-03T00:36:21.074Z,12.15
2022-12-03T00:38:47.468Z,12.02
2022-12-03T00:41:13.834Z,11.80
2022-12-03T00:43:40.358Z,11.65
2022-12-03T00:46:06.764Z,12.10
2022-12-03T00:48:33.130Z,12.05
2022-12-03T00:50:59.688Z,13.00
2022-12-03T00:53:27.133Z,12.23
2022-12-03T00:55:53.498Z,12.05
2022-12-03T00:58:19.811Z,10.77
2022-12-03T01:00:46.098Z,11.73
2022-12-03T01:03:12.512Z,12.10
2022-12-03T01:05:38.871Z,12.40
2022-12-03T01:08:05.287Z,11.45
2022-12-03T01:10:31.630Z,11.80
2022-12-03T01:12:57.928Z,10.98
2022-12-03T01:15:24.245Z,11.60
2022-12-03T01:17:50.524Z,10.77
2022-12-03T01:20:16.862Z,12.38
2022-12-03T01:22:43.139Z,12.13
2022-12-03T01:25:09.684Z,10.90
2022-12-03T01:27:36.046Z,11.43
2022-12-03T01:30:02.365Z,13.05
2022-12-03T01:32:28.703Z,11.32
2022-12-03T01:34:55.748Z,11.70
2022-12-03T01:37:23.589Z,11.75
2022-12-03T01:39:50.168Z,11.88
2022-12-03T01:42:18.016Z,11.43
2022-12-03T01:44:44.703Z,12.30
2022-12-03T01:47:13.544Z,11.55
2022-12-03T01:50:03.099Z,11.32
2022-12-03T01:52:31.220Z,11.23
2022-12-03T01:54:58.505Z,11.65
2022-12-03T01:57:26.568Z,11.50
2022-12-03T01:59:53.794Z,12.07
2022-12-03T02:02:22.598Z,12.13
2022-12-03T02:04:49.529Z,12.27
2022-12-03T02:07:26.633Z,12.63
2022-12-03T02:09:53.868Z,12.98
2022-12-03T02:12:22.929Z,11.93
2022-12-03T02:14:49.384Z,12.25
2022-12-03T02:17:15.986Z,11.80
2022-12-03T02:19:42.503Z,11.55
2022-12-03T02:22:20.968Z,12.35
2022-12-03T02:24:59.659Z,11.40
2022-12-03T02:27:28.151Z,12.55
2022-12-03T02:29:54.553Z,11.68
2022-12-03T02:32:23.306Z,11.45
2022-12-03T02:34:49.849Z,13.02
2022-12-03T02:37:18.481Z,11.60
2022-12-03T02:39:47.284Z,11.77
2022-12-03T02:42:32.284Z,12.60
2022-12-03T02:45:04.842Z,12.65
2022-12-03T02:47:33.647Z,12.48
2022-12-03T02:50:00.510Z,12.60
2022-12-03T02:52:27.249Z,11.50
2022-12-03T02:54:54.028Z,12.95
2022-12-03T02:57:20.721Z,11.95
2022-12-03T02:59:47.428Z,12.20
2022-12-03T03:02:14.044Z,12.63
2022-12-03T03:04:41.173Z,12.23
2022-12-03T03:07:08.035Z,13.15
2022-12-03T03:09:35.167Z,13.32
2022-12-03T03:12:01.632Z,12.98
2022-12-03T03:14:28.136Z,13.45
2022-12-03T03:16:56.287Z,11.75
2022-12-03T03:19:24.565Z,12.95
2022-12-03T03:21:51.203Z,12.48
2022-12-03T03:24:17.701Z,13.05
2022-12-03T03:26:44.198Z,11.80
2022-12-03T03:29:10.904Z,13.13
2022-12-03T03:31:37.781Z,12.95
2022-12-03T03:34:04.543Z,12.90
2022-12-03T03:36:31.538Z,13.55
2022-12-03T03:38:58.150Z,12.82
2022-12-03T03:41:25.458Z,12.98
2022-12-03T03:43:51.987Z,12.98
2022-12-03T03:46:18.916Z,13.95
2022-12-03T03:48:45.569Z,13.48
2022-12-03T03:51:12.625Z,13.18
2022-12-03T03:53:43.569Z,12.57
2022-12-03T03:58:36.532Z,13.38
2022-12-03T04:01:03.082Z,13.57
2022-12-03T04:03:29.521Z,13.52
2022-12-03T04:05:56.134Z,13.68
2022-12-03T04:08:22.628Z,13.63
2022-12-03T04:11:12.264Z,13.48
2022-12-03T04:13:38.586Z,13.60
2022-12-03T04:16:05.045Z,14.18
2022-12-03T04:18:43.323Z,13.48
2022-12-03T04:21:28.823Z,12.93
2022-12-03T04:23:55.311Z,13.20
2022-12-03T04:26:40.417Z,14.77
2022-12-03T04:29:07.014Z,13.32
2022-12-03T04:31:51.777Z,13.57
2022-12-03T04:34:36.764Z,13.95
2022-12-03T04:37:03.129Z,14.05
2022-12-03T04:39:29.587Z,12.85
2022-12-03T04:41:56.083Z,13.25
2022-12-03T04:44:37.708Z,12.63
2022-12-03T04:47:09.538Z,11.60
2022-12-03T04:49:38.310Z,11.52
2022-12-03T04:52:04.858Z,12.63
2022-12-03T04:54:31.494Z,12.40
2022-12-03T04:56:57.984Z,12.73
2022-12-03T04:59:24.464Z,12.25
2022-12-03T05:01:51.140Z,12.30
2022-12-03T05:04:17.808Z,11.45
2022-12-03T05:06:44.150Z,11.45
2022-12-03T05:09:11.232Z,12.32
2022-12-03T05:11:37.899Z,12.55
2022-12-03T05:14:04.445Z,11.68
2022-12-03T05:16:31.068Z,12.60
2022-12-03T05:18:57.664Z,14.45
2022-12-03T05:21:24.198Z,13.55
2022-12-03T05:23:50.580Z,13.80
2022-12-03T05:26:16.877Z,13.93
2022-12-03T05:28:43.275Z,12.60
2022-12-03T05:31:09.943Z,14.52
2022-12-03T05:33:40.848Z,13.75
2022-12-03T05:36:10.264Z,14.85
2022-12-03T05:38:36.582Z,14.05
2022-12-03T05:41:02.945Z,12.90
2022-12-03T05:43:29.302Z,13.15
2022-12-03T05:45:55.740Z,13.43
2022-12-03T05:48:22.231Z,14.27
2022-12-03T05:50:48.607Z,14.27
2022-12-03T05:53:15.760Z,13.50
2022-12-03T05:55:42.259Z,13.90
2022-12-03T05:58:08.660Z,13.10
2022-12-03T06:00:42.661Z,14.00
2022-12-03T06:03:09.766Z,13.77
2022-12-03T06:05:36.357Z,13.73
2022-12-03T06:08:02.770Z,12.63
2022-12-03T06:10:29.672Z,13.63
2022-12-03T06:12:56.148Z,13.32
2022-12-03T06:15:22.576Z,12.15
2022-12-03T06:17:49.171Z,13.32
2022-12-03T06:20:17.252Z,13.07
2022-12-03T06:22:43.689Z,12.75
2022-12-03T06:25:10.710Z,12.40
2022-12-03T06:27:37.000Z,11.80
2022-12-03T06:30:04.912Z,11.95
2022-12-03T06:32:31.610Z,12.93
2022-12-03T06:34:58.085Z,12.82
2022-12-03T06:37:24.576Z,12.40
2022-12-03T06:39:50.981Z,12.77
2022-12-03T06:42:17.344Z,12.68
2022-12-03T06:44:43.795Z,12.82
2022-12-03T06:47:10.177Z,12.88
2022-12-03T06:49:36.647Z,13.07
2022-12-03T06:52:03.153Z,12.55
2022-12-03T06:54:29.597Z,12.90
2022-12-03T06:56:55.934Z,13.02
2022-12-03T06:59:22.263Z,12.98
2022-12-03T07:01:48.854Z,12.82
2022-12-03T07:04:15.291Z,12.80
2022-12-03T07:06:41.762Z,12.45
2022-12-03T07:09:08.152Z,13.88
2022-12-03T07:11:40.419Z,13.73
2022-12-03T07:14:07.869Z,12.98
2022-12-03T07:16:38.193Z,13.60
2022-12-03T07:19:05.466Z,12.82
2022-12-03T07:21:31.990Z,13.50
2022-12-03T07:23:58.400Z,12.77
2022-12-03T07:26:24.772Z,13.23
2022-12-03T07:28:54.414Z,14.18
2022-12-03T07:31:20.947Z,13.65
2022-12-03T07:33:47.426Z,13.23
2022-12-03T07:36:13.983Z,13.73
2022-12-03T07:38:40.400Z,13.93
2022-12-03T07:41:06.796Z,12.52
2022-12-03T07:43:33.992Z,12.88
2022-12-03T07:46:00.868Z,12.93
2022-12-03T07:48:27.308Z,11.68
2022-12-03T07:50:53.735Z,13.35
2022-12-03T07:53:20.085Z,13.57
2022-12-03T07:55:46.487Z,13.55
2022-12-03T07:58:13.005Z,13.70
2022-12-03T08:00:39.778Z,13.18
2022-12-03T08:03:06.143Z,14.32
2022-12-03T08:05:32.546Z,13.60
2022-12-03T08:07:59.018Z,15.48
2022-12-03T08:10:25.482Z,14.52
2022-12-03T08:12:52.057Z,13.18
2022-12-03T08:15:20.017Z,13.80
2022-12-03T08:17:47.583Z,14.50
2022-12-03T08:20:14.224Z,14.85
2022-12-03T08:22:41.236Z,15.43
2022-12-03T08:25:13.516Z,14.45
2022-12-03T08:27:39.837Z,14.98
2022-12-03T08:30:06.532Z,16.00
2022-12-03T08:32:32.849Z,15.60
2022-12-03T08:35:01.070Z,15.88
2022-12-03T08:37:28.984Z,14.75
2022-12-03T08:39:55.309Z,14.52
2022-12-03T08:42:41.428Z,14.38
2022-12-03T08:45:27.987Z,14.63
2022-12-03T08:47:57.565Z,13.85
2022-12-03T08:50:29.129Z,15.50
2022-12-03T08:52:59.248Z,14.60
2022-12-03T08:55:48.921Z,14.50
2022-12-03T08:58:26.896Z,14.07
2022-12-03T09:00:56.764Z,14.95
2022-12-03T09:03:23.342Z,15.32
2022-12-03T09:05:49.718Z,13.32
2022-12-03T09:08:16.092Z,15.23
2022-12-03T09:10:42.529Z,15.23
2022-12-03T09:13:09.200Z,15.23
2022-12-03T09:15:35.479Z,15.40
2022-12-03T09:18:01.843Z,15.45
2022-12-03T09:20:28.216Z,15.10
2022-12-03T09:22:54.586Z,14.75
2022-12-03T09:25:20.911Z,15.63
2022-12-03T09:27:47.370Z,14.45
2022-12-03T09:30:13.838Z,17.50
2022-12-03T09:32:40.161Z,14.75
2022-12-03T09:35:06.806Z,17.30
2022-12-03T09:37:33.123Z,15.98
2022-12-03T09:39:59.385Z,17.73
2022-12-03T09:42:25.903Z,15.63
2022-12-03T09:44:52.509Z,15.48
2022-12-03T09:47:19.106Z,14.52
2022-12-03T09:49:45.572Z,14.70
2022-12-03T09:52:13.768Z,14.80
2022-12-03T09:54:51.999Z,12.60
2022-12-03T09:57:18.845Z,13.07
2022-12-03T09:59:45.434Z,12.75
2022-12-03T10:02:21.323Z,13.20
2022-12-03T10:04:48.426Z,13.13
2022-12-03T10:07:14.907Z,14.15
2022-12-03T10:09:41.287Z,14.82
2022-12-03T10:12:11.831Z,15.32
2022-12-03T10:14:38.352Z,14.55
2022-12-03T10:17:05.170Z,15.10
2022-12-03T10:19:32.590Z,14.38
2022-12-03T10:21:58.955Z,15.05
2022-12-03T10:24:28.940Z,15.43
2022-12-03T10:27:18.366Z,15.43
2022-12-03T10:29:53.446Z,14.15
2022-12-03T10:32:27.148Z,15.02
2022-12-03T10:35:06.635Z,15.05
2022-12-03T10:37:32.953Z,13.95
2022-12-03T10:40:09.103Z,14.40
2022-12-03T10:42:36.935Z,15.07
2022-12-03T10:45:06.600Z,14.05
2022-12-03T10:47:33.095Z,14.90
2022-12-03T10:50:04.199Z,15.15
2022-12-03T10:52:30.529Z,14.60
2022-12-03T10:54:56.929Z,13.73
2022-12-03T10:57:23.280Z,13.82
2022-12-03T10:59:49.798Z,15.43
2022-12-03T11:02:21.104Z,14.50
2022-12-03T11:04:47.641Z,14.48
2022-12-03T11:07:18.815Z,16.67
2022-12-03T11:09:49.542Z,15.88
2022-12-03T11:12:23.590Z,16.20
2022-12-03T11:14:54.347Z,16.17
2022-12-03T11:19:47.947Z,13.70
2022-12-03T11:22:14.205Z,16.33
2022-12-03T11:24:40.631Z,14.25
2022-12-03T11:27:07.046Z,13.82
2022-12-03T11:29:47.660Z,15.20
2022-12-03T11:32:52.685Z,14.85
2022-12-03T11:35:24.986Z,15.45
2022-12-03T11:37:51.683Z,14.43
2022-12-03T11:40:18.015Z,15.55
2022-12-03T11:42:45.532Z,13.13
2022-12-03T11:45:30.617Z,13.38
2022-12-03T11:47:59.929Z,14.07
2022-12-03T11:50:40.422Z,12.63
2022-12-03T11:53:21.499Z,11.32
2022-12-03T11:55:51.979Z,11.85
2022-12-03T11:58:24.523Z,11.30
2022-12-03T12:00:58.208Z,10.43
2022-12-03T12:03:29.327Z,10.90
2022-12-03T12:06:09.725Z,10.07
2022-12-03T12:08:37.576Z,10.57
2022-12-03T12:11:04.315Z,10.55
2022-12-03T12:13:30.706Z,11.23
2022-12-03T12:15:57.996Z,10.40
2022-12-03T12:18:34.541Z,10.70
2022-12-03T12:21:19.763Z,10.50
2022-12-03T12:23:46.128Z,10.07
2022-12-03T12:26:12.517Z,10.25
2022-12-03T12:28:38.833Z,10.65
2022-12-03T12:31:10.382Z,9.32
2022-12-03T12:33:36.823Z,9.40
2022-12-03T12:36:08.475Z,10.98
2022-12-03T12:38:34.765Z,10.32
2022-12-03T12:41:04.914Z,10.68
2022-12-03T12:43:33.805Z,9.98
2022-12-03T12:46:13.824Z,10.57
2022-12-03T12:48:47.652Z,10.13
2022-12-03T12:51:15.470Z,11.00
2022-12-03T12:53:45.358Z,10.55
2022-12-03T12:56:20.708Z,10.35
2022-12-03T12:58:47.150Z,10.43
2022-12-03T13:01:19.492Z,9.95
2022-12-03T13:03:46.021Z,9.93
2022-12-03T13:06:14.321Z,9.20
2022-12-03T13:08:42.739Z,10.13
2022-12-03T13:11:24.377Z,9.23
2022-12-03T13:13:50.988Z,10.18
2022-12-03T13:16:26.423Z,10.02
2022-12-03T13:18:53.580Z,10.25
2022-12-03T13:21:38.765Z,9.85
2022-12-03T13:24:23.698Z,10.82
2022-12-03T13:26:49.990Z,10.40
2022-12-03T13:29:18.176Z,10.15
2022-12-03T13:31:54.460Z,10.45
2022-12-03T13:34:21.829Z,9.55
2022-12-03T13:36:53.581Z,10.13
2022-12-03T13:39:26.981Z,9.85
2022-12-03T13:42:12.116Z,11.20
2022-12-03T13:44:44.037Z,10.30
2022-12-03T13:47:20.671Z,10.52
2022-12-03T13:50:03.688Z,10.93
2022-12-03T13:52:32.235Z,11.20
2022-12-03T13:55:02.551Z,11.25
2022-12-03T13:57:28.837Z,10.10
2022-12-03T13:59:55.385Z,12.93
2022-12-03T14:02:22.206Z,13.23
2022-12-03T14:04:48.581Z,14.90
2022-12-03T14:07:20.291Z,14.75
2022-12-03T14:09:46.651Z,15.52
2022-12-03T14:12:28.951Z,17.23
2022-12-03T14:15:13.084Z,15.95
2022-12-03T14:17:39.469Z,14.48
2022-12-03T14:20:06.161Z,14.50
2022-12-03T14:22:32.523Z,15.90
2022-12-03T14:24:58.900Z,15.98
2022-12-03T14:27:25.297Z,14.85
2022-12-03T14:29:52.079Z,17.48
2022-12-03T14:32:19.012Z,14.63
2022-12-03T14:34:45.415Z,16.05
2022-12-03T14:37:11.745Z,13.82
2022-12-03T14:39:38.257Z,14.95
2022-12-03T14:42:13.685Z,13.55
2022-12-03T14:44:47.388Z,15.30
2022-12-03T14:47:14.757Z,13.75
2022-12-03T14:49:41.350Z,12.50
2022-12-03T14:52:11.999Z,12.55
2022-12-03T14:54:44.962Z,14.07
2022-12-03T14:57:12.720Z,12.35
2022-12-03T14:59:39.862Z,12.77
2022-12-03T15:02:06.600Z,12.70
2022-12-03T15:04:32.994Z,12.48
2022-12-03T15:06:59.313Z,11.88
2022-12-03T15:09:25.692Z,14.13
2022-12-03T15:11:52.026Z,12.18
2022-12-03T15:14:18.304Z,12.38
2022-12-03T15:16:44.660Z,12.02
2022-12-03T15:19:10.998Z,10.55
2022-12-03T15:21:37.362Z,11.45
2022-12-03T15:24:03.905Z,10.68
2022-12-03T15:26:30.317Z,12.15
2022-12-03T15:28:56.684Z,11.23
2022-12-03T15:31:23.023Z,11.43
2022-12-03T15:33:49.452Z,12.35
2022-12-03T15:36:15.771Z,11.43
2022-12-03T15:38:42.161Z,11.32
2022-12-03T15:41:21.225Z,10.93
2022-12-03T15:43:48.128Z,9.57
2022-12-03T15:46:14.480Z,11.15
2022-12-03T15:48:40.873Z,11.20
2022-12-03T15:51:07.244Z,9.68
2022-12-03T15:53:33.655Z,11.40
2022-12-03T15:56:00.018Z,12.20
2022-12-03T15:58:26.324Z,10.57
2022-12-03T16:00:52.605Z,12.15
2022-12-03T16:03:18.945Z,12.73
2022-12-03T16:05:45.262Z,12.57
2022-12-03T16:08:11.614Z,12.93
2022-12-03T16:10:37.876Z,13.73
2022-12-03T16:13:04.176Z,14.10
2022-12-03T16:15:30.551Z,14.82
2022-12-03T16:17:56.861Z,15.43
2022-12-03T16:20:23.175Z,15.93
2022-12-03T16:22:49.462Z,16.80
2022-12-03T16:25:15.762Z,15.93
2022-12-03T16:27:42.061Z,15.82
2022-12-03T16:30:08.676Z,15.55
2022-12-03T16:32:35.046Z,16.63
2022-12-03T16:35:01.684Z,15.98
2022-12-03T16:37:28.110Z,14.88
2022-12-03T16:39:54.688Z,16.10
2022-12-03T16:42:21.269Z,15.45
2022-12-03T16:45:02.837Z,15.68
2022-12-03T16:47:33.576Z,16.65
2022-12-03T16:50:00.947Z,15.20
2022-12-03T16:52:27.292Z,15.60
2022-12-03T16:54:53.612Z,16.10
2022-12-03T16:57:19.930Z,15.52
2022-12-03T16:59:46.209Z,17.08
2022-12-03T17:02:13.062Z,17.17
2022-12-03T17:04:39.484Z,16.08
2022-12-03T17:07:05.798Z,16.23
2022-12-03T17:09:32.131Z,16.45
2022-12-03T17:11:58.479Z,16.42
2022-12-03T17:14:28.652Z,16.02
2022-12-03T17:16:59.344Z,15.55
2022-12-03T17:19:25.635Z,16.38
2022-12-03T17:21:53.922Z,16.40
2022-12-03T17:24:21.284Z,16.70
2022-12-03T17:26:47.640Z,17.02
2022-12-03T17:29:14.443Z,16.52
2022-12-03T17:31:42.385Z,17.23
2022-12-03T17:34:09.303Z,17.02
2022-12-03T17:36:35.657Z,16.55
2022-12-03T17:39:01.958Z,17.38
2022-12-03T17:41:28.370Z,16.77
2022-12-03T17:43:54.856Z,16.83
2022-12-03T17:46:21.344Z,15.35
2022-12-03T17:48:47.789Z,17.85
2022-12-03T17:51:14.096Z,17.05
2022-12-03T17:53:40.393Z,17.15
2022-12-03T17:56:06.795Z,17.35
2022-12-03T17:58:33.123Z,16.50
2022-12-03T18:01:02.750Z,16.60
2022-12-03T18:03:29.572Z,17.90
2022-12-03T18:05:56.026Z,16.30
2022-12-03T18:08:22.432Z,17.27
2022-12-03T18:10:48.758Z,16.77
2022-12-03T18:13:15.025Z,16.75
2022-12-03T18:15:41.382Z,16.73
2022-12-03T18:18:07.821Z,16.13
2022-12-03T18:20:34.197Z,16.73
2022-12-03T18:23:00.582Z,18.13
2022-12-03T18:25:27.112Z,16.38
2022-12-03T18:27:55.423Z,16.95
2022-12-03T18:30:21.886Z,14.48
2022-12-03T18:32:50.515Z,15.27
2022-12-03T18:35:20.039Z,14.77
2022-12-03T18:37:46.558Z,16.25
2022-12-03T18:40:17.913Z,16.30
2022-12-03T18:42:44.455Z,16.70
2022-12-03T18:45:11.508Z,16.00
2022-12-03T18:47:37.837Z,14.50
2022-12-03T18:50:05.245Z,16.15
2022-12-03T18:52:31.521Z,15.90
2022-12-03T18:54:57.929Z,14.90
2022-12-03T18:57:24.276Z,15.43
2022-12-03T18:59:53.435Z,15.20
2022-12-03T19:03:00.600Z,15.82
2022-12-03T19:05:12.573Z,15.05
2022-12-03T19:07:38.974Z,15.95
2022-12-03T19:10:05.617Z,15.13
2022-12-03T19:12:32.763Z,17.00
2022-12-03T19:14:59.408Z,14.93
2022-12-03T19:17:27.384Z,15.93
2022-12-03T19:19:54.309Z,15.90
2022-12-03T19:22:20.976Z,15.75
2022-12-03T19:24:47.305Z,16.10
2022-12-03T19:27:13.729Z,16.50
2022-12-03T19:29:40.428Z,15.85
2022-12-03T19:32:06.849Z,16.75
2022-12-03T19:34:33.432Z,16.38
2022-12-03T19:36:59.711Z,16.08
2022-12-03T19:39:26.016Z,16.27
2022-12-03T19:41:52.370Z,16.65
2022-12-03T19:44:19.160Z,17.05
2022-12-03T19:46:45.473Z,17.00
2022-12-03T19:49:12.147Z,15.95
2022-12-03T19:51:38.862Z,17.52
2022-12-03T19:54:05.904Z,17.13
2022-12-03T19:56:32.318Z,16.60
2022-12-03T19:58:58.786Z,16.52
2022-12-03T20:01:26.956Z,16.63
2022-12-03T20:03:54.657Z,16.58
2022-12-03T20:06:23.239Z,15.52
2022-12-03T20:08:50.250Z,15.45
2022-12-03T20:11:20.942Z,17.48
2022-12-03T20:13:47.853Z,16.40
2022-12-03T20:16:15.414Z,17.13
2022-12-03T20:18:46.372Z,16.27
2022-12-03T20:23:39.317Z,15.82
2022-12-03T20:26:09.194Z,16.23
2022-12-03T20:28:35.623Z,16.30
2022-12-03T20:31:03.160Z,15.80
2022-12-03T20:33:31.131Z,17.73
2022-12-03T20:35:57.827Z,16.33
2022-12-03T20:38:26.277Z,16.25
2022-12-03T20:40:53.127Z,16.92
2022-12-03T20:43:19.693Z,17.00
2022-12-03T20:45:46.140Z,16.42
2022-12-03T20:48:12.556Z,15.82
2022-12-03T20:50:39.248Z,18.38
2022-12-03T20:53:24.384Z,17.02
2022-12-03T20:55:57.947Z,17.23
2022-12-03T20:58:24.395Z,16.23
2022-12-03T21:00:50.869Z,15.82
2022-12-03T21:03:17.185Z,16.13
2022-12-03T21:05:46.468Z,17.70
2022-12-03T21:08:13.082Z,17.33
2022-12-03T21:10:46.285Z,16.35
2022-12-03T21:13:13.724Z,17.10
2022-12-03T21:15:40.486Z,16.70
2022-12-03T21:18:08.728Z,17.02
2022-12-03T21:20:47.666Z,16.67
2022-12-03T21:23:14.657Z,16.45
2022-12-03T21:25:41.014Z,16.45
2022-12-03T21:28:08.277Z,15.85
2022-12-03T21:30:37.403Z,17.15
2022-12-03T21:33:04.263Z,15.73
2022-12-03T21:35:30.623Z,16.95
2022-12-03T21:37:57.127Z,17.65
2022-12-03T21:40:23.522Z,16.52
2022-12-03T21:42:49.897Z,15.27
2022-12-03T21:45:16.441Z,17.20
2022-12-03T21:47:46.223Z,16.48
2022-12-03T21:50:12.594Z,15.75
2022-12-03T21:52:39.025Z,15.75
2022-12-03T21:55:06.420Z,17.67
2022-12-03T21:57:34.792Z,17.05
2022-12-03T22:00:01.146Z,17.50
2022-12-03T22:02:28.116Z,17.60
2022-12-03T22:04:54.531Z,16.75
2022-12-03T22:07:20.832Z,16.33
2022-12-03T22:09:47.116Z,16.50
2022-12-03T22:12:13.536Z,17.58
2022-12-03T22:14:39.892Z,16.50
2022-12-03T22:17:06.284Z,17.75
2022-12-03T22:19:32.671Z,16.65
2022-12-03T22:21:59.195Z,18.30
2022-12-03T22:24:25.616Z,17.02
2022-12-03T22:26:53.549Z,18.13
2022-12-03T22:29:19.945Z,17.25
2022-12-03T22:31:46.341Z,17.02
2022-12-03T22:34:12.927Z,17.02
2022-12-03T22:36:39.275Z,15.63
2022-12-03T22:39:05.652Z,17.42
2022-12-03T22:41:31.966Z,18.30
2022-12-03T22:43:58.279Z,17.85
2022-12-03T22:46:24.825Z,18.65
2022-12-03T22:48:51.246Z,16.95
2022-12-03T22:51:17.548Z,17.80
2022-12-03T22:53:43.956Z,17.38
2022-12-03T22:56:10.599Z,16.73
2022-12-03T22:58:37.736Z,17.42
2022-12-03T23:01:04.094Z,15.98
2022-12-03T23:03:33.287Z,17.80
2022-12-03T23:05:59.742Z,17.63
2022-12-03T23:08:26.145Z,18.05
2022-12-03T23:10:52.954Z,18.05
2022-12-03T23:13:19.981Z,17.73
2022-12-03T23:15:47.417Z,19.15
2022-12-03T23:18:13.893Z,18.15
2022-12-03T23:20:47.271Z,17.23
2022-12-03T23:23:14.018Z,17.73
2022-12-03T23:25:40.442Z,17.15
2022-12-03T23:28:07.438Z,16.70
2022-12-03T23:30:37.181Z,16.98
2022-12-03T23:33:04.100Z,16.73
2022-12-03T23:35:30.490Z,18.20
2022-12-03T23:37:56.820Z,19.50
2022-12-03T23:40:23.139Z,17.92
2022-12-03T23:42:49.882Z,17.73
2022-12-03T23:45:16.210Z,19.55
2022-12-03T23:47:42.551Z,18.42
2022-12-03T23:50:09.151Z,19.17
2022-12-03T23:52:36.090Z,19.60
2022-12-03T23:55:02.746Z,19.67
2022-12-03T23:57:29.154Z,18.73
2022-12-03T23:59:55.599Z,18.15
